createdAt,value
2023-03-13T00:04:23.887Z,34.30
2023-03-13T00:09:45.628Z,34.02
2023-03-13T00:15:08.026Z,34.28
2023-03-13T00:20:30.107Z,34.37
2023-03-13T00:26:03.813Z,34.34
2023-03-13T00:31:28.415Z,34.30
2023-03-13T00:36:50.278Z,34.42
2023-03-13T00:42:12.125Z,34.44
2023-03-13T00:47:33.812Z,34.31
2023-03-13T00:52:55.657Z,34.45
2023-03-13T00:58:17.394Z,34.75
2023-03-13T01:03:40.482Z,34.31
2023-03-13T01:09:03.218Z,34.71
2023-03-13T01:14:24.962Z,34.43
2023-03-13T01:19:46.627Z,34.55
2023-03-13T01:25:08.806Z,34.63
2023-03-13T01:30:32.068Z,34.54
2023-03-13T01:36:01.821Z,35.00
2023-03-13T01:41:24.896Z,35.00
2023-03-13T01:46:46.652Z,34.67
2023-03-13T01:52:16.888Z,34.93
2023-03-13T01:57:45.690Z,35.03
2023-03-13T02:03:12.730Z,34.85
2023-03-13T02:09:08.050Z,34.94
2023-03-13T02:14:33.720Z,35.45
2023-03-13T02:19:55.564Z,35.03
2023-03-13T02:25:26.018Z,35.12
2023-03-13T02:30:50.411Z,35.06
2023-03-13T02:36:13.786Z,35.38
2023-03-13T02:41:36.044Z,35.66
2023-03-13T02:46:57.848Z,35.47
2023-03-13T02:52:51.231Z,35.61
2023-03-13T02:58:12.941Z,35.57
2023-03-13T03:03:37.119Z,35.74
2023-03-13T03:08:58.907Z,35.70
2023-03-13T03:14:20.759Z,35.58
2023-03-13T03:19:42.425Z,35.86
2023-03-13T03:25:06.429Z,35.93
2023-03-13T03:30:28.972Z,35.59
2023-03-13T03:35:51.422Z,35.98
2023-03-13T03:41:16.704Z,35.88
2023-03-13T03:46:38.412Z,35.84
2023-03-13T03:52:00.136Z,36.13
2023-03-13T03:57:21.972Z,35.96
2023-03-13T04:02:43.746Z,36.00
2023-03-13T04:08:06.029Z,36.20
2023-03-13T04:13:28.588Z,36.21
2023-03-13T04:18:50.298Z,36.02
2023-03-13T04:24:12.089Z,36.09
2023-03-13T04:29:35.331Z,36.28
2023-03-13T04:34:57.119Z,36.50
2023-03-13T04:40:18.946Z,36.29
2023-03-13T04:45:40.718Z,36.59
2023-03-13T04:51:02.573Z,36.43
2023-03-13T04:56:41.629Z,36.70
2023-03-13T05:02:04.223Z,36.77
2023-03-13T05:07:25.946Z,36.57
2023-03-13T05:12:47.661Z,36.72
2023-03-13T05:18:09.358Z,37.02
2023-03-13T05:23:31.047Z,36.83
2023-03-13T05:28:52.835Z,36.74
2023-03-13T05:34:14.522Z,37.17
2023-03-13T05:39:36.182Z,36.91
2023-03-13T05:44:57.967Z,37.13
2023-03-13T05:50:19.803Z,37.01
2023-03-13T05:55:42.672Z,37.08
2023-03-13T06:01:09.433Z,37.26
2023-03-13T06:06:31.244Z,37.13
2023-03-13T06:11:53.369Z,37.28
2023-03-13T06:17:15.106Z,36.60
2023-03-13T06:22:36.847Z,36.39
2023-03-13T06:27:59.069Z,36.39
2023-03-13T06:33:20.956Z,36.44
2023-03-13T06:38:42.698Z,36.11
2023-03-13T06:44:05.382Z,36.23
2023-03-13T06:49:27.127Z,36.80
2023-03-13T06:54:48.830Z,36.86
2023-03-13T07:00:13.837Z,36.86
2023-03-13T07:05:35.523Z,37.00
2023-03-13T07:11:03.053Z,37.29
2023-03-13T07:16:24.767Z,37.34
2023-03-13T07:21:47.357Z,37.03
2023-03-13T07:27:09.197Z,37.12
2023-03-13T07:32:34.292Z,37.38
2023-03-13T07:37:56.560Z,37.14
2023-03-13T07:43:19.129Z,37.04
2023-03-13T07:48:43.182Z,37.21
2023-03-13T07:54:05.081Z,37.47
2023-03-13T07:59:26.939Z,37.07
2023-03-13T08:04:52.500Z,37.65
2023-03-13T08:10:14.158Z,37.51
2023-03-13T08:15:35.900Z,38.03
2023-03-13T08:21:02.096Z,38.17
2023-03-13T08:26:27.063Z,38.22
2023-03-13T08:31:51.632Z,38.11
2023-03-13T08:37:16.773Z,38.27
2023-03-13T08:42:39.151Z,37.95
2023-03-13T08:48:01.150Z,37.64
2023-03-13T08:53:22.947Z,37.58
2023-03-13T08:58:45.391Z,37.42
2023-03-13T09:04:08.116Z,36.88
2023-03-13T09:09:29.994Z,37.15
2023-03-13T09:14:51.700Z,36.53
2023-03-13T09:20:16.966Z,36.47
2023-03-13T09:25:39.213Z,36.17
2023-03-13T09:31:11.374Z,35.85
2023-03-13T09:36:33.233Z,36.03
2023-03-13T09:42:17.467Z,35.94
2023-03-13T09:47:39.097Z,35.80
2023-03-13T09:53:13.720Z,35.63
2023-03-13T09:58:35.601Z,35.67
2023-03-13T10:04:05.795Z,35.67
2023-03-13T10:09:33.964Z,36.04
2023-03-13T10:15:17.496Z,35.65
2023-03-13T10:20:41.008Z,35.67
2023-03-13T10:26:02.900Z,36.12
2023-03-13T10:31:33.079Z,36.02
2023-03-13T10:36:58.728Z,36.24
2023-03-13T10:42:23.090Z,36.95
2023-03-13T10:47:45.023Z,36.90
2023-03-13T10:53:30.958Z,36.85
2023-03-13T10:58:53.677Z,37.18
2023-03-13T11:04:32.115Z,36.88
2023-03-13T11:10:02.010Z,36.76
2023-03-13T11:15:46.304Z,37.15
2023-03-13T11:21:20.103Z,36.91
2023-03-13T11:27:26.959Z,37.38
2023-03-13T11:32:55.395Z,37.58
2023-03-13T11:38:32.650Z,37.30
2023-03-13T11:44:09.149Z,37.65
2023-03-13T11:50:05.033Z,37.45
2023-03-13T11:56:08.628Z,37.60
2023-03-13T12:01:40.413Z,37.65
2023-03-13T12:07:05.143Z,37.49
2023-03-13T12:12:45.226Z,37.24
2023-03-13T12:18:20.031Z,37.23
2023-03-13T12:23:44.611Z,37.01
2023-03-13T12:29:20.305Z,37.09
2023-03-13T12:35:05.327Z,36.94
2023-03-13T12:40:57.659Z,36.93
2023-03-13T12:46:19.381Z,36.72
2023-03-13T12:52:23.528Z,36.89
2023-03-13T12:58:19.275Z,36.96
2023-03-13T13:04:07.765Z,36.72
2023-03-13T13:09:36.471Z,36.84
2023-03-13T13:15:04.281Z,36.91
2023-03-13T13:20:36.478Z,36.62
2023-03-13T13:26:27.207Z,36.50
2023-03-13T13:31:50.915Z,36.86
2023-03-13T13:37:12.636Z,36.90
2023-03-13T13:42:34.405Z,36.75
2023-03-13T13:48:43.477Z,36.97
2023-03-13T13:54:34.272Z,36.83
2023-03-13T14:00:19.815Z,36.70
2023-03-13T14:05:41.941Z,36.73
2023-03-13T14:11:25.236Z,36.71
2023-03-13T14:16:51.900Z,36.45
2023-03-13T14:22:14.594Z,36.94
2023-03-13T14:27:43.879Z,36.71
2023-03-13T14:33:06.266Z,36.52
2023-03-13T14:38:33.664Z,36.42
2023-03-13T14:44:01.540Z,36.04
2023-03-13T14:49:27.122Z,36.07
2023-03-13T14:54:53.419Z,35.41
2023-03-13T15:00:32.812Z,35.23
2023-03-13T15:06:27.138Z,35.26
2023-03-13T15:12:00.238Z,34.39
2023-03-13T15:17:25.043Z,34.41
2023-03-13T15:22:46.781Z,34.27
2023-03-13T15:28:19.904Z,34.04
2023-03-13T15:33:43.168Z,33.72
2023-03-13T15:39:06.705Z,33.46
2023-03-13T15:44:28.458Z,33.35
2023-03-13T15:49:50.245Z,33.34
2023-03-13T15:55:12.814Z,32.93
2023-03-13T16:00:34.529Z,32.88
2023-03-13T16:05:57.413Z,32.99
2023-03-13T16:11:19.469Z,33.11
2023-03-13T16:16:41.638Z,32.93
2023-03-13T16:22:03.401Z,33.34
2023-03-13T16:27:26.708Z,32.74
2023-03-13T16:32:48.607Z,32.96
2023-03-13T16:38:11.763Z,33.16
2023-03-13T16:43:33.944Z,32.97
2023-03-13T16:48:58.563Z,33.35
2023-03-13T16:54:20.485Z,33.13
2023-03-13T16:59:42.222Z,33.47
2023-03-13T17:05:04.065Z,33.56
2023-03-13T17:10:25.775Z,33.69
2023-03-13T17:15:47.471Z,33.56
2023-03-13T17:21:17.928Z,33.76
2023-03-13T17:26:40.220Z,34.12
2023-03-13T17:32:04.037Z,34.41
2023-03-13T17:37:26.832Z,34.67
2023-03-13T17:42:48.854Z,34.17
2023-03-13T17:48:13.117Z,34.33
2023-03-13T17:53:34.803Z,34.50
2023-03-13T17:58:59.558Z,34.84
2023-03-13T18:04:21.412Z,34.68
2023-03-13T18:09:47.640Z,34.98
2023-03-13T18:15:10.038Z,34.88
2023-03-13T18:20:32.562Z,34.83
2023-03-13T18:25:54.244Z,34.75
2023-03-13T18:31:16.122Z,35.06
2023-03-13T18:36:38.993Z,34.94
2023-03-13T18:42:02.211Z,35.11
2023-03-13T18:47:27.430Z,34.90
2023-03-13T18:52:49.373Z,34.55
2023-03-13T18:58:11.906Z,34.37
2023-03-13T19:03:33.728Z,34.45
2023-03-13T19:09:01.787Z,34.07
2023-03-13T19:14:23.827Z,34.07
2023-03-13T19:19:45.691Z,33.42
2023-03-13T19:25:07.856Z,33.91
2023-03-13T19:30:29.581Z,33.80
2023-03-13T19:35:51.407Z,34.22
2023-03-13T19:41:14.366Z,34.15
2023-03-13T19:46:39.424Z,34.17
2023-03-13T19:52:01.419Z,34.29
2023-03-13T19:57:23.329Z,34.90
2023-03-13T20:02:45.403Z,35.19
2023-03-13T20:08:07.893Z,35.06
2023-03-13T20:13:29.946Z,35.52
2023-03-13T20:18:52.686Z,35.44
2023-03-13T20:24:14.384Z,35.34
2023-03-13T20:29:36.412Z,35.59
2023-03-13T20:34:58.118Z,35.74
2023-03-13T20:40:19.934Z,36.36
2023-03-13T20:45:41.647Z,36.39
2023-03-13T20:51:03.722Z,36.00
2023-03-13T20:56:26.709Z,35.53
2023-03-13T21:01:48.580Z,35.51
2023-03-13T21:07:11.276Z,35.51
2023-03-13T21:12:32.987Z,35.32
2023-03-13T21:17:56.548Z,35.03
2023-03-13T21:23:18.386Z,35.34
2023-03-13T21:28:40.693Z,35.37
2023-03-13T21:34:02.443Z,35.39
2023-03-13T21:39:24.186Z,35.59
2023-03-13T21:44:48.958Z,35.24
2023-03-13T21:50:11.579Z,35.31
2023-03-13T21:55:35.495Z,35.41
2023-03-13T22:00:57.997Z,35.76
2023-03-13T22:06:22.716Z,35.45
2023-03-13T22:11:44.492Z,35.39
2023-03-13T22:17:06.271Z,35.59
2023-03-13T22:22:28.050Z,35.53
2023-03-13T22:27:49.718Z,35.72
2023-03-13T22:33:11.452Z,35.55
2023-03-13T22:38:39.331Z,35.60
2023-03-13T22:44:01.055Z,35.66
2023-03-13T22:49:22.799Z,36.07
2023-03-13T22:54:46.926Z,35.92
2023-03-13T23:00:09.741Z,36.01
2023-03-13T23:05:31.502Z,35.82
2023-03-13T23:10:53.212Z,36.04
2023-03-13T23:16:15.023Z,35.82
2023-03-13T23:21:38.397Z,35.66
2023-03-13T23:27:00.170Z,36.03
2023-03-13T23:32:22.834Z,36.00
2023-03-13T23:37:48.359Z,35.87
2023-03-13T23:43:10.017Z,35.77
2023-03-13T23:48:32.404Z,35.75
2023-03-13T23:53:54.100Z,35.79
2023-03-13T23:59:15.895Z,35.44
